createdAt,value
2023-05-18T00:02:08.423Z,10.70
2023-05-18T00:04:39.727Z,10.65
2023-05-18T00:07:10.035Z,10.63
2023-05-18T00:09:41.505Z,10.60
2023-05-18T00:12:12.142Z,10.59
2023-05-18T00:14:45.044Z,10.58
2023-05-18T00:17:16.265Z,10.57
2023-05-18T00:19:46.971Z,10.55
2023-05-18T00:22:18.340Z,10.50
2023-05-18T00:24:49.068Z,10.50
2023-05-18T00:27:19.537Z,10.49
2023-05-18T00:29:52.498Z,10.46
2023-05-18T00:32:23.138Z,10.46
2023-05-18T00:34:55.087Z,10.42
2023-05-18T00:37:26.340Z,10.38
2023-05-18T00:39:56.642Z,10.35
2023-05-18T00:42:26.858Z,10.32
2023-05-18T00:45:00.242Z,10.31
2023-05-18T00:47:30.459Z,10.27
2023-05-18T00:50:00.855Z,10.22
2023-05-18T00:52:33.946Z,10.22
2023-05-18T00:55:04.610Z,10.19
2023-05-18T00:57:36.926Z,10.17
2023-05-18T01:00:14.076Z,10.16
2023-05-18T01:02:46.118Z,10.14
2023-05-18T01:05:18.289Z,10.10
2023-05-18T01:07:49.157Z,10.07
2023-05-18T01:10:21.521Z,10.04
2023-05-18T01:12:55.979Z,10.03
2023-05-18T01:15:34.144Z,10.05
2023-05-18T01:18:17.874Z,10.01
2023-05-18T01:20:51.001Z,10.04
2023-05-18T01:23:47.052Z,9.95
2023-05-18T01:26:24.956Z,9.95
2023-05-18T01:28:57.004Z,9.92
2023-05-18T01:31:27.383Z,9.88
2023-05-18T01:33:57.631Z,9.84
2023-05-18T01:36:27.836Z,9.80
2023-05-18T01:39:02.159Z,9.75
2023-05-18T01:41:39.522Z,9.72
2023-05-18T01:44:15.995Z,9.69
2023-05-18T01:46:51.707Z,9.67
2023-05-18T01:49:31.796Z,9.64
2023-05-18T01:52:06.723Z,9.62
2023-05-18T01:54:37.254Z,9.59
2023-05-18T01:57:11.970Z,9.57
2023-05-18T01:59:42.296Z,9.52
2023-05-18T02:02:12.543Z,9.51
2023-05-18T02:04:42.790Z,9.45
2023-05-18T02:07:15.206Z,9.39
2023-05-18T02:09:46.130Z,9.33
2023-05-18T02:12:18.922Z,9.30
2023-05-18T02:14:49.200Z,9.26
2023-05-18T02:17:20.197Z,9.19
2023-05-18T02:19:51.622Z,9.18
2023-05-18T02:22:21.931Z,9.14
2023-05-18T02:24:52.213Z,9.12
2023-05-18T02:27:25.006Z,9.10
2023-05-18T02:29:55.247Z,9.04
2023-05-18T02:32:28.114Z,9.01
2023-05-18T02:34:58.353Z,8.94
2023-05-18T02:37:28.628Z,8.94
2023-05-18T02:39:58.936Z,8.88
2023-05-18T02:42:32.175Z,8.85
2023-05-18T02:45:03.401Z,8.81
2023-05-18T02:47:34.125Z,8.78
2023-05-18T02:50:04.687Z,8.71
2023-05-18T02:52:35.987Z,8.66
2023-05-18T02:55:07.446Z,8.64
2023-05-18T02:58:00.798Z,8.60
2023-05-18T03:00:53.189Z,8.53
2023-05-18T03:03:24.050Z,8.53
2023-05-18T03:05:55.842Z,8.45
2023-05-18T03:08:27.221Z,8.43
2023-05-18T03:10:57.993Z,8.39
2023-05-18T03:13:30.808Z,8.32
2023-05-18T03:16:01.092Z,8.27
2023-05-18T03:18:32.377Z,8.22
2023-05-18T03:21:03.641Z,8.20
2023-05-18T03:23:33.963Z,8.20
2023-05-18T03:26:10.834Z,8.20
2023-05-18T03:28:43.768Z,8.16
2023-05-18T03:31:13.955Z,8.17
2023-05-18T03:33:44.427Z,8.16
2023-05-18T03:36:16.910Z,8.12
2023-05-18T03:38:48.111Z,8.08
2023-05-18T03:41:19.520Z,8.08
2023-05-18T03:43:52.697Z,8.07
2023-05-18T03:46:23.172Z,8.04
2023-05-18T03:48:54.087Z,8.08
2023-05-18T03:51:29.723Z,8.05
2023-05-18T03:54:00.110Z,8.06
2023-05-18T03:56:31.476Z,8.05
2023-05-18T03:59:05.203Z,8.01
2023-05-18T04:01:36.522Z,7.98
2023-05-18T04:04:07.572Z,7.98
2023-05-18T04:06:40.371Z,8.00
2023-05-18T04:09:12.886Z,8.05
2023-05-18T04:11:43.119Z,8.11
2023-05-18T04:14:17.325Z,8.17
2023-05-18T04:16:48.380Z,8.29
2023-05-18T04:19:19.266Z,8.32
2023-05-18T04:21:49.598Z,8.42
2023-05-18T04:24:22.826Z,8.51
2023-05-18T04:26:53.031Z,8.56
2023-05-18T04:29:25.960Z,8.59
2023-05-18T04:32:01.279Z,8.69
2023-05-18T04:34:31.814Z,8.79
2023-05-18T04:37:06.082Z,8.88
2023-05-18T04:39:39.717Z,9.01
2023-05-18T04:42:14.308Z,9.12
2023-05-18T04:44:49.119Z,9.22
2023-05-18T04:47:19.361Z,9.36
2023-05-18T04:49:52.490Z,9.48
2023-05-18T04:52:23.362Z,9.50
2023-05-18T04:54:53.547Z,9.49
2023-05-18T04:57:23.925Z,9.54
2023-05-18T04:59:58.530Z,9.61
2023-05-18T05:02:28.913Z,9.70
2023-05-18T05:04:59.258Z,9.75
2023-05-18T05:07:29.423Z,9.84
2023-05-18T05:09:59.621Z,9.87
2023-05-18T05:12:29.789Z,9.88
2023-05-18T05:15:03.074Z,9.90
2023-05-18T05:17:33.535Z,9.97
2023-05-18T05:20:03.936Z,9.99
2023-05-18T05:22:35.178Z,10.07
2023-05-18T05:25:07.188Z,10.15
2023-05-18T05:27:37.523Z,10.00
2023-05-18T05:30:11.727Z,10.02
2023-05-18T05:32:43.059Z,10.15
2023-05-18T05:35:13.945Z,10.21
2023-05-18T05:37:44.998Z,10.21
2023-05-18T05:40:15.756Z,10.27
2023-05-18T05:42:48.521Z,10.38
2023-05-18T05:45:21.456Z,10.59
2023-05-18T05:47:55.782Z,10.69
2023-05-18T05:50:27.884Z,10.88
2023-05-18T05:53:01.078Z,11.07
2023-05-18T05:55:33.928Z,11.25
2023-05-18T05:58:05.582Z,11.40
2023-05-18T06:00:38.753Z,11.47
2023-05-18T06:03:09.053Z,11.52
2023-05-18T06:05:42.908Z,11.69
2023-05-18T06:08:16.000Z,11.88
2023-05-18T06:10:46.547Z,12.06
2023-05-18T06:13:16.893Z,12.26
2023-05-18T06:15:58.053Z,12.53
2023-05-18T06:18:28.430Z,12.81
2023-05-18T06:21:03.671Z,12.97
2023-05-18T06:23:33.968Z,13.18
2023-05-18T06:26:07.121Z,13.31
2023-05-18T06:29:15.701Z,13.51
2023-05-18T06:32:06.306Z,13.50
2023-05-18T06:34:42.834Z,13.56
2023-05-18T06:37:13.825Z,13.65
2023-05-18T06:39:44.136Z,13.82
2023-05-18T06:42:14.612Z,13.91
2023-05-18T06:44:54.299Z,14.13
2023-05-18T06:47:42.713Z,14.54
2023-05-18T06:50:13.803Z,14.71
2023-05-18T06:52:44.017Z,15.00
2023-05-18T06:55:15.562Z,15.22
2023-05-18T06:57:46.543Z,15.42
2023-05-18T07:00:17.544Z,15.57
2023-05-18T07:02:50.384Z,15.69
2023-05-18T07:05:21.824Z,15.91
2023-05-18T07:07:52.275Z,15.92
2023-05-18T07:10:22.871Z,16.12
2023-05-18T07:12:53.249Z,16.18
2023-05-18T07:15:26.012Z,16.34
2023-05-18T07:17:59.358Z,16.54
2023-05-18T07:20:29.911Z,16.79
2023-05-18T07:23:00.123Z,17.05
2023-05-18T07:25:31.273Z,16.86
2023-05-18T07:28:01.666Z,16.74
2023-05-18T07:30:31.898Z,16.63
2023-05-18T07:33:04.852Z,16.43
2023-05-18T07:35:35.135Z,16.78
2023-05-18T07:38:05.378Z,16.57
2023-05-18T07:40:35.655Z,16.39
2023-05-18T07:43:05.979Z,16.33
2023-05-18T07:45:36.171Z,16.39
2023-05-18T07:48:09.224Z,16.48
2023-05-18T07:50:39.563Z,16.14
2023-05-18T07:53:10.777Z,16.33
2023-05-18T07:55:42.350Z,16.60
2023-05-18T07:58:13.605Z,16.85
2023-05-18T08:00:44.626Z,17.00
2023-05-18T08:03:17.596Z,17.13
2023-05-18T08:05:47.827Z,17.33
2023-05-18T08:08:18.974Z,17.01
2023-05-18T08:10:49.272Z,17.05
2023-05-18T08:13:19.472Z,17.38
2023-05-18T08:15:59.207Z,17.75
2023-05-18T08:18:42.684Z,17.71
2023-05-18T08:21:12.862Z,17.83
2023-05-18T08:23:43.096Z,17.81
2023-05-18T08:26:14.161Z,17.61
2023-05-18T08:28:45.469Z,17.50
2023-05-18T08:31:15.943Z,17.40
2023-05-18T08:33:48.894Z,17.15
2023-05-18T08:36:19.937Z,17.07
2023-05-18T08:38:50.187Z,17.29
2023-05-18T08:41:24.115Z,17.12
2023-05-18T08:44:00.598Z,17.01
2023-05-18T08:46:33.849Z,17.07
2023-05-18T08:49:08.527Z,17.30
2023-05-18T08:51:41.590Z,17.31
2023-05-18T08:54:12.282Z,17.61
2023-05-18T08:56:42.703Z,18.59
2023-05-18T08:59:14.874Z,19.15
2023-05-18T09:01:45.289Z,18.93
2023-05-18T09:04:18.301Z,19.63
2023-05-18T09:06:48.750Z,19.82
2023-05-18T09:09:19.179Z,19.50
2023-05-18T09:11:50.380Z,19.08
2023-05-18T09:14:23.283Z,19.28
2023-05-18T09:16:53.536Z,19.98
2023-05-18T09:19:27.228Z,19.73
2023-05-18T09:21:57.624Z,19.56
2023-05-18T09:24:27.903Z,19.61
2023-05-18T09:26:58.132Z,19.30
2023-05-18T09:29:28.445Z,19.16
2023-05-18T09:31:58.858Z,19.11
2023-05-18T09:34:42.613Z,19.37
2023-05-18T09:37:13.008Z,19.44
2023-05-18T09:39:44.539Z,19.50
2023-05-18T09:42:15.253Z,19.54
2023-05-18T09:44:46.480Z,19.48
2023-05-18T09:47:16.803Z,19.49
2023-05-18T09:49:49.801Z,19.54
2023-05-18T09:52:20.150Z,19.34
2023-05-18T09:54:56.473Z,19.26
2023-05-18T09:57:26.795Z,18.93
2023-05-18T09:59:59.567Z,18.90
2023-05-18T10:02:29.873Z,18.87
2023-05-18T10:05:02.871Z,18.87
2023-05-18T10:07:33.242Z,18.84
2023-05-18T10:10:07.824Z,18.93
2023-05-18T10:12:42.443Z,19.53
2023-05-18T10:15:13.765Z,20.19
2023-05-18T10:17:46.656Z,20.53
2023-05-18T10:20:21.673Z,20.53
2023-05-18T10:22:52.433Z,20.36
2023-05-18T10:25:24.290Z,20.12
2023-05-18T10:27:59.247Z,20.13
2023-05-18T10:30:30.284Z,20.41
2023-05-18T10:33:01.701Z,20.72
2023-05-18T10:35:35.564Z,20.75
2023-05-18T10:38:08.853Z,20.65
2023-05-18T10:40:39.549Z,20.69
2023-05-18T10:43:11.018Z,21.42
2023-05-18T10:45:41.559Z,21.52
2023-05-18T10:48:12.904Z,21.20
2023-05-18T10:50:46.358Z,20.99
2023-05-18T10:53:18.376Z,20.93
2023-05-18T10:55:48.818Z,20.92
2023-05-18T10:58:28.696Z,21.07
2023-05-18T11:01:01.760Z,21.28
2023-05-18T11:03:33.103Z,21.41
2023-05-18T11:06:11.271Z,21.73
2023-05-18T11:08:50.680Z,22.26
2023-05-18T11:11:22.160Z,22.97
2023-05-18T11:13:56.875Z,22.91
2023-05-18T11:16:36.744Z,22.63
2023-05-18T11:19:09.509Z,22.81
2023-05-18T11:21:57.601Z,23.51
2023-05-18T11:24:29.490Z,24.03
2023-05-18T11:27:01.359Z,25.26
2023-05-18T11:29:37.112Z,26.03
2023-05-18T11:32:08.324Z,26.81
2023-05-18T11:34:45.603Z,26.09
2023-05-18T11:37:20.330Z,25.73
2023-05-18T11:40:01.116Z,26.83
2023-05-18T11:42:35.890Z,26.50
2023-05-18T11:45:09.949Z,25.61
2023-05-18T11:47:41.557Z,25.30
2023-05-18T11:50:13.507Z,25.67
2023-05-18T11:52:55.205Z,27.54
2023-05-18T11:55:25.771Z,28.57
2023-05-18T11:57:56.393Z,29.33
2023-05-18T12:00:27.410Z,28.83
2023-05-18T12:02:59.828Z,29.99
2023-05-18T12:05:34.492Z,29.91
2023-05-18T12:08:07.903Z,27.90
2023-05-18T12:10:39.998Z,28.27
2023-05-18T12:13:11.198Z,28.37
2023-05-18T12:15:42.458Z,29.25
2023-05-18T12:18:12.787Z,30.08
2023-05-18T12:20:43.892Z,30.64
2023-05-18T12:23:16.737Z,30.84
2023-05-18T12:25:51.018Z,30.95
2023-05-18T12:28:21.356Z,29.82
2023-05-18T12:30:51.662Z,29.65
2023-05-18T12:33:26.921Z,29.27
2023-05-18T12:35:58.201Z,29.85
2023-05-18T12:38:33.331Z,30.58
2023-05-18T12:41:03.751Z,31.67
2023-05-18T12:43:37.638Z,32.51
2023-05-18T12:46:08.710Z,32.68
2023-05-18T12:48:39.326Z,31.04
2023-05-18T12:51:10.072Z,31.30
2023-05-18T12:53:47.503Z,31.12
2023-05-18T12:56:18.441Z,29.29
2023-05-18T12:58:59.622Z,27.96
2023-05-18T13:01:30.058Z,29.03
2023-05-18T13:04:01.412Z,30.45
2023-05-18T13:06:32.648Z,29.74
2023-05-18T13:09:05.938Z,29.93
2023-05-18T13:11:36.251Z,29.74
2023-05-18T13:14:07.886Z,29.62
2023-05-18T13:16:41.685Z,30.76
2023-05-18T13:19:13.194Z,29.23
2023-05-18T13:21:43.464Z,27.74
2023-05-18T13:24:16.917Z,27.90
2023-05-18T13:26:50.271Z,28.55
2023-05-18T13:29:21.763Z,29.56
2023-05-18T13:31:52.205Z,28.67
2023-05-18T13:34:25.016Z,28.46
2023-05-18T13:36:55.750Z,30.50
2023-05-18T13:39:29.437Z,31.48
2023-05-18T13:42:03.220Z,32.04
2023-05-18T13:44:33.671Z,33.15
2023-05-18T13:47:03.961Z,33.89
2023-05-18T13:49:34.242Z,32.78
2023-05-18T13:52:04.616Z,31.05
2023-05-18T13:54:38.527Z,28.92
2023-05-18T13:57:09.592Z,27.44
2023-05-18T13:59:39.891Z,26.45
2023-05-18T14:02:10.453Z,26.89
2023-05-18T14:04:43.093Z,27.84
2023-05-18T14:07:13.294Z,28.10
2023-05-18T14:09:46.237Z,26.42
2023-05-18T14:12:16.544Z,25.37
2023-05-18T14:14:46.740Z,24.67
2023-05-18T14:17:17.042Z,26.94
2023-05-18T14:19:47.238Z,29.58
2023-05-18T14:23:24.546Z,30.88
2023-05-18T14:25:55.098Z,29.26
2023-05-18T14:28:25.651Z,27.54
2023-05-18T14:30:56.352Z,26.34
2023-05-18T14:33:26.962Z,25.47
2023-05-18T14:35:58.473Z,27.83
2023-05-18T14:38:31.564Z,28.56
2023-05-18T14:41:02.044Z,28.58
2023-05-18T14:43:32.507Z,29.94
2023-05-18T14:48:36.675Z,26.83
2023-05-18T14:51:07.461Z,26.16
2023-05-18T14:53:40.632Z,26.13
2023-05-18T14:56:11.527Z,25.64
2023-05-18T14:58:42.030Z,25.37
2023-05-18T15:01:12.706Z,25.78
2023-05-18T15:03:43.487Z,25.47
2023-05-18T15:06:14.148Z,26.39
2023-05-18T15:08:47.486Z,26.55
2023-05-18T15:11:18.002Z,25.66
2023-05-18T15:13:49.397Z,24.52
2023-05-18T15:16:20.143Z,23.72
2023-05-18T15:18:50.719Z,23.08
2023-05-18T15:21:21.288Z,22.92
2023-05-18T15:23:54.054Z,23.20
2023-05-18T15:26:24.737Z,23.40
2023-05-18T15:28:55.216Z,23.40
2023-05-18T15:31:25.753Z,23.37
2023-05-18T15:33:55.979Z,22.94
2023-05-18T15:36:27.427Z,22.83
2023-05-18T15:39:00.569Z,22.63
2023-05-18T15:41:33.981Z,22.34
2023-05-18T15:44:05.087Z,22.24
2023-05-18T15:46:36.057Z,22.14
2023-05-18T15:49:06.925Z,21.87
2023-05-18T15:51:37.410Z,21.72
2023-05-18T15:54:10.897Z,21.60
2023-05-18T15:56:41.422Z,21.51
2023-05-18T15:59:12.085Z,21.49
2023-05-18T16:01:42.729Z,21.49
2023-05-18T16:04:13.362Z,21.38
2023-05-18T16:06:44.452Z,21.15
2023-05-18T16:09:17.714Z,21.00
2023-05-18T16:11:48.218Z,20.88
2023-05-18T16:14:18.685Z,20.61
2023-05-18T16:16:49.429Z,20.36
2023-05-18T16:19:20.759Z,20.28
2023-05-18T16:21:51.289Z,20.12
2023-05-18T16:24:24.378Z,19.93
2023-05-18T16:26:54.875Z,19.79
2023-05-18T16:29:25.314Z,19.72
2023-05-18T16:31:55.981Z,19.52
2023-05-18T16:34:26.205Z,19.45
2023-05-18T16:36:56.766Z,19.43
2023-05-18T16:39:30.038Z,19.32
2023-05-18T16:42:01.056Z,19.36
2023-05-18T16:44:33.115Z,19.41
2023-05-18T16:47:03.675Z,19.29
2023-05-18T16:49:34.184Z,19.30
2023-05-18T16:52:05.372Z,19.39
2023-05-18T16:54:38.667Z,19.45
2023-05-18T16:57:13.329Z,19.37
2023-05-18T16:59:43.934Z,19.11
2023-05-18T17:02:15.821Z,18.95
2023-05-18T17:04:50.087Z,18.70
2023-05-18T17:07:21.941Z,18.57
2023-05-18T17:09:55.125Z,18.44
2023-05-18T17:12:25.608Z,18.29
2023-05-18T17:14:56.052Z,18.23
2023-05-18T17:17:26.999Z,18.11
2023-05-18T17:19:57.549Z,18.05
2023-05-18T17:22:28.071Z,17.95
2023-05-18T17:25:01.240Z,17.95
2023-05-18T17:27:32.296Z,17.84
2023-05-18T17:30:03.007Z,17.78
2023-05-18T17:32:33.559Z,17.74
2023-05-18T17:35:05.726Z,17.64
2023-05-18T17:37:36.233Z,17.57
2023-05-18T17:40:12.519Z,17.54
2023-05-18T17:42:43.045Z,17.45
2023-05-18T17:45:14.342Z,17.39
2023-05-18T17:47:46.218Z,17.35
2023-05-18T17:50:17.142Z,17.29
2023-05-18T17:52:47.265Z,17.18
2023-05-18T17:55:20.730Z,17.09
2023-05-18T17:57:51.288Z,17.08
2023-05-18T18:00:22.917Z,17.09
2023-05-18T18:02:54.087Z,17.06
2023-05-18T18:05:24.675Z,17.09
2023-05-18T18:07:55.161Z,17.09
2023-05-18T18:10:28.425Z,16.95
2023-05-18T18:12:58.944Z,16.81
2023-05-18T18:15:29.469Z,16.75
2023-05-18T18:18:00.020Z,16.68
2023-05-18T18:20:31.677Z,16.62
2023-05-18T18:23:02.328Z,16.62
2023-05-18T18:25:35.516Z,16.64
2023-05-18T18:28:08.219Z,16.61
2023-05-18T18:30:38.786Z,16.52
2023-05-18T18:33:09.433Z,16.54
2023-05-18T18:35:40.003Z,16.52
2023-05-18T18:38:11.095Z,16.41
2023-05-18T18:40:44.581Z,16.37
2023-05-18T18:43:15.293Z,16.38
2023-05-18T18:45:45.843Z,16.31
2023-05-18T18:48:16.372Z,16.31
2023-05-18T18:50:46.900Z,16.30
2023-05-18T18:53:17.501Z,16.26
2023-05-18T18:55:50.765Z,16.22
2023-05-18T18:58:24.256Z,16.22
2023-05-18T19:00:54.840Z,16.18
2023-05-18T19:03:26.262Z,16.13
2023-05-18T19:05:56.943Z,16.12
2023-05-18T19:08:27.512Z,16.06
2023-05-18T19:11:00.850Z,16.03
2023-05-18T19:13:31.327Z,16.02
2023-05-18T19:16:02.020Z,16.01
2023-05-18T19:18:32.550Z,15.98
2023-05-18T19:21:03.077Z,15.92
2023-05-18T19:23:33.537Z,15.92
2023-05-18T19:26:07.151Z,15.85
2023-05-18T19:28:37.739Z,15.80
2023-05-18T19:31:10.388Z,15.80
2023-05-18T19:33:40.883Z,15.78
2023-05-18T19:36:11.705Z,15.78
2023-05-18T19:38:42.399Z,15.76
2023-05-18T19:41:15.744Z,15.75
2023-05-18T19:43:46.220Z,15.72
2023-05-18T19:46:17.057Z,15.69
2023-05-18T19:48:47.251Z,15.66
2023-05-18T19:51:18.730Z,15.59
2023-05-18T19:53:49.504Z,15.57
2023-05-18T19:56:24.314Z,15.55
2023-05-18T19:58:54.878Z,15.53
2023-05-18T20:01:25.521Z,15.54
2023-05-18T20:03:57.051Z,15.49
2023-05-18T20:06:28.308Z,15.46
2023-05-18T20:08:58.935Z,15.43
2023-05-18T20:11:32.088Z,15.42
2023-05-18T20:14:03.310Z,15.43
2023-05-18T20:16:34.417Z,15.38
2023-05-18T20:19:05.209Z,15.37
2023-05-18T20:21:36.120Z,15.33
2023-05-18T20:24:06.817Z,15.25
2023-05-18T20:26:40.018Z,15.23
2023-05-18T20:29:10.894Z,15.24
2023-05-18T20:31:41.584Z,15.23
2023-05-18T20:34:12.083Z,15.25
2023-05-18T20:36:42.707Z,15.25
2023-05-18T20:39:13.370Z,15.23
2023-05-18T20:41:47.984Z,15.22
2023-05-18T20:44:18.554Z,15.24
2023-05-18T20:46:49.999Z,15.23
2023-05-18T20:49:21.840Z,15.24
2023-05-18T20:51:52.692Z,15.22
2023-05-18T20:54:24.143Z,15.21
2023-05-18T20:56:57.524Z,15.22
2023-05-18T20:59:28.138Z,15.22
2023-05-18T21:01:59.375Z,15.17
2023-05-18T21:04:30.939Z,15.16
2023-05-18T21:07:01.547Z,15.12
2023-05-18T21:09:32.344Z,15.10
2023-05-18T21:12:05.846Z,15.10
2023-05-18T21:14:36.370Z,15.07
2023-05-18T21:17:07.095Z,15.05
2023-05-18T21:19:37.619Z,15.03
2023-05-18T21:22:08.479Z,14.98
2023-05-18T21:24:39.032Z,14.94
2023-05-18T21:27:12.318Z,14.92
2023-05-18T21:29:43.022Z,14.88
2023-05-18T21:32:14.197Z,14.85
2023-05-18T21:34:44.815Z,14.84
2023-05-18T21:37:15.413Z,14.80
2023-05-18T21:39:46.979Z,14.75
2023-05-18T21:42:20.187Z,14.73
2023-05-18T21:44:50.911Z,14.70
2023-05-18T21:47:21.420Z,14.68
2023-05-18T21:49:51.955Z,14.66
2023-05-18T21:52:22.514Z,14.63
2023-05-18T21:54:53.123Z,14.59
2023-05-18T21:57:26.299Z,14.58
2023-05-18T21:59:56.812Z,14.57
2023-05-18T22:02:27.405Z,14.54
2023-05-18T22:04:57.933Z,14.55
2023-05-18T22:07:28.797Z,14.52
2023-05-18T22:09:59.320Z,14.51
2023-05-18T22:12:33.445Z,14.52
2023-05-18T22:15:03.971Z,14.52
2023-05-18T22:17:34.556Z,14.50
2023-05-18T22:20:06.049Z,14.53
2023-05-18T22:22:36.585Z,14.55
2023-05-18T22:25:07.561Z,14.55
2023-05-18T22:27:40.358Z,14.55
2023-05-18T22:30:13.811Z,14.52
2023-05-18T22:32:44.717Z,14.51
2023-05-18T22:35:14.916Z,14.50
2023-05-18T22:37:45.472Z,14.50
2023-05-18T22:40:16.868Z,14.49
2023-05-18T22:42:50.027Z,14.51
2023-05-18T22:45:20.867Z,14.51
2023-05-18T22:47:51.677Z,14.49
2023-05-18T22:50:22.483Z,14.49
2023-05-18T22:52:53.239Z,14.49
2023-05-18T22:55:23.941Z,14.48
2023-05-18T22:57:57.061Z,14.50
2023-05-18T23:00:27.776Z,14.54
2023-05-18T23:02:58.427Z,14.51
2023-05-18T23:05:29.389Z,14.49
2023-05-18T23:08:02.227Z,14.48
2023-05-18T23:10:33.281Z,14.46
2023-05-18T23:13:06.658Z,14.48
2023-05-18T23:15:37.331Z,14.49
2023-05-18T23:18:09.493Z,14.48
2023-05-18T23:20:40.129Z,14.48
2023-05-18T23:23:10.751Z,14.49
2023-05-18T23:25:41.272Z,14.46
2023-05-18T23:28:14.382Z,14.46
2023-05-18T23:30:44.996Z,14.43
2023-05-18T23:33:17.766Z,14.39
2023-05-18T23:35:49.527Z,14.38
2023-05-18T23:38:22.874Z,14.34
2023-05-18T23:40:56.446Z,14.33
2023-05-18T23:43:30.735Z,14.30
2023-05-18T23:46:02.495Z,14.30
2023-05-18T23:48:34.386Z,14.28
2023-05-18T23:51:07.350Z,14.27
2023-05-18T23:53:38.515Z,14.25
2023-05-18T23:56:12.547Z,14.27
2023-05-18T23:58:48.693Z,14.27
